sensor_id;sensor_type;location;lat;lon;timestamp;P1;durP1;ratioP1;P2;durP2;ratioP2
85682;SDS011;76253;52.232;5.176;2024-03-08T00:02:23;39.13;;;13.90;;
85682;SDS011;76253;52.232;5.176;2024-03-08T00:04:48;39.88;;;14.15;;
85682;SDS011;76253;52.232;5.176;2024-03-08T00:07:14;38.22;;;14.55;;
85682;SDS011;76253;52.232;5.176;2024-03-08T00:09:40;42.05;;;13.90;;
85682;SDS011;76253;52.232;5.176;2024-03-08T00:12:06;38.75;;;14.18;;
85682;SDS011;76253;52.232;5.176;2024-03-08T00:14:31;32.70;;;13.73;;
85682;SDS011;76253;52.232;5.176;2024-03-08T00:16:58;38.30;;;14.18;;
85682;SDS011;76253;52.232;5.176;2024-03-08T00:19:23;34.72;;;14.27;;
85682;SDS011;76253;52.232;5.176;2024-03-08T00:21:50;32.00;;;14.02;;
85682;SDS011;76253;52.232;5.176;2024-03-08T00:24:16;38.03;;;14.07;;
85682;SDS011;76253;52.232;5.176;2024-03-08T00:26:41;36.60;;;13.23;;
85682;SDS011;76253;52.232;5.176;2024-03-08T00:29:07;39.50;;;14.75;;
85682;SDS011;76253;52.232;5.176;2024-03-08T00:31:32;36.20;;;14.32;;
85682;SDS011;76253;52.232;5.176;2024-03-08T00:33:58;40.20;;;15.73;;
85682;SDS011;76253;52.232;5.176;2024-03-08T00:36:23;40.33;;;14.93;;
85682;SDS011;76253;52.232;5.176;2024-03-08T00:38:49;32.72;;;13.85;;
85682;SDS011;76253;52.232;5.176;2024-03-08T00:41:15;38.75;;;15.05;;
85682;SDS011;76253;52.232;5.176;2024-03-08T00:43:40;37.67;;;13.35;;
85682;SDS011;76253;52.232;5.176;2024-03-08T00:46:05;38.80;;;13.30;;
85682;SDS011;76253;52.232;5.176;2024-03-08T00:48:31;37.55;;;15.38;;
85682;SDS011;76253;52.232;5.176;2024-03-08T00:50:56;36.60;;;14.63;;
85682;SDS011;76253;52.232;5.176;2024-03-08T00:53:22;35.35;;;13.68;;
85682;SDS011;76253;52.232;5.176;2024-03-08T00:55:47;35.97;;;13.65;;
85682;SDS011;76253;52.232;5.176;2024-03-08T00:58:13;38.70;;;15.50;;
85682;SDS011;76253;52.232;5.176;2024-03-08T01:00:38;34.92;;;13.73;;
85682;SDS011;76253;52.232;5.176;2024-03-08T01:03:09;28.88;;;13.27;;
85682;SDS011;76253;52.232;5.176;2024-03-08T01:05:37;31.35;;;13.57;;
85682;SDS011;76253;52.232;5.176;2024-03-08T01:08:02;37.53;;;13.45;;
85682;SDS011;76253;52.232;5.176;2024-03-08T01:10:28;34.17;;;13.15;;
85682;SDS011;76253;52.232;5.176;2024-03-08T01:12:53;32.10;;;13.10;;
85682;SDS011;76253;52.232;5.176;2024-03-08T01:15:23;36.95;;;13.43;;
85682;SDS011;76253;52.232;5.176;2024-03-08T01:17:48;36.55;;;13.77;;
85682;SDS011;76253;52.232;5.176;2024-03-08T01:20:15;33.08;;;13.80;;
85682;SDS011;76253;52.232;5.176;2024-03-08T01:22:40;40.90;;;13.90;;
85682;SDS011;76253;52.232;5.176;2024-03-08T01:25:06;33.20;;;14.55;;
85682;SDS011;76253;52.232;5.176;2024-03-08T01:27:33;37.63;;;14.82;;
85682;SDS011;76253;52.232;5.176;2024-03-08T01:30:00;32.67;;;12.57;;
85682;SDS011;76253;52.232;5.176;2024-03-08T01:32:26;34.30;;;14.00;;
85682;SDS011;76253;52.232;5.176;2024-03-08T01:34:52;36.78;;;13.95;;
85682;SDS011;76253;52.232;5.176;2024-03-08T01:37:17;32.95;;;13.63;;
85682;SDS011;76253;52.232;5.176;2024-03-08T01:39:43;37.72;;;14.50;;
85682;SDS011;76253;52.232;5.176;2024-03-08T01:42:08;38.28;;;14.82;;
85682;SDS011;76253;52.232;5.176;2024-03-08T01:44:33;40.13;;;14.37;;
85682;SDS011;76253;52.232;5.176;2024-03-08T01:47:00;37.80;;;14.75;;
85682;SDS011;76253;52.232;5.176;2024-03-08T01:49:26;36.47;;;14.30;;
85682;SDS011;76253;52.232;5.176;2024-03-08T01:51:53;33.20;;;14.27;;
85682;SDS011;76253;52.232;5.176;2024-03-08T01:54:21;34.55;;;13.40;;
85682;SDS011;76253;52.232;5.176;2024-03-08T01:56:48;39.50;;;15.30;;
85682;SDS011;76253;52.232;5.176;2024-03-08T01:59:14;38.65;;;14.70;;
85682;SDS011;76253;52.232;5.176;2024-03-08T02:04:06;29.95;;;12.77;;
85682;SDS011;76253;52.232;5.176;2024-03-08T02:06:32;35.28;;;14.38;;
85682;SDS011;76253;52.232;5.176;2024-03-08T02:08:57;32.03;;;14.18;;
85682;SDS011;76253;52.232;5.176;2024-03-08T02:11:23;35.47;;;14.73;;
85682;SDS011;76253;52.232;5.176;2024-03-08T02:13:48;35.97;;;12.93;;
85682;SDS011;76253;52.232;5.176;2024-03-08T02:16:19;36.47;;;14.60;;
85682;SDS011;76253;52.232;5.176;2024-03-08T02:18:46;32.50;;;12.80;;
85682;SDS011;76253;52.232;5.176;2024-03-08T02:21:11;35.72;;;13.57;;
85682;SDS011;76253;52.232;5.176;2024-03-08T02:23:38;35.33;;;14.45;;
85682;SDS011;76253;52.232;5.176;2024-03-08T02:26:05;34.20;;;13.75;;
85682;SDS011;76253;52.232;5.176;2024-03-08T02:28:30;32.83;;;13.75;;
85682;SDS011;76253;52.232;5.176;2024-03-08T02:30:59;40.08;;;15.27;;
85682;SDS011;76253;52.232;5.176;2024-03-08T02:33:26;39.25;;;14.82;;
85682;SDS011;76253;52.232;5.176;2024-03-08T02:35:53;35.47;;;14.45;;
85682;SDS011;76253;52.232;5.176;2024-03-08T02:38:19;33.25;;;13.60;;
85682;SDS011;76253;52.232;5.176;2024-03-08T02:40:50;33.97;;;14.23;;
85682;SDS011;76253;52.232;5.176;2024-03-08T02:43:17;33.58;;;13.95;;
85682;SDS011;76253;52.232;5.176;2024-03-08T02:45:47;34.13;;;14.05;;
85682;SDS011;76253;52.232;5.176;2024-03-08T02:48:13;37.15;;;15.15;;
85682;SDS011;76253;52.232;5.176;2024-03-08T02:53:05;36.08;;;13.57;;
85682;SDS011;76253;52.232;5.176;2024-03-08T02:55:31;34.38;;;14.02;;
85682;SDS011;76253;52.232;5.176;2024-03-08T02:57:58;37.55;;;14.13;;
85682;SDS011;76253;52.232;5.176;2024-03-08T03:00:24;37.88;;;15.65;;
85682;SDS011;76253;52.232;5.176;2024-03-08T03:02:49;32.75;;;13.32;;
85682;SDS011;76253;52.232;5.176;2024-03-08T03:05:25;37.35;;;15.73;;
85682;SDS011;76253;52.232;5.176;2024-03-08T03:07:51;36.13;;;13.60;;
85682;SDS011;76253;52.232;5.176;2024-03-08T03:10:16;39.40;;;14.80;;
85682;SDS011;76253;52.232;5.176;2024-03-08T03:12:43;32.80;;;14.23;;
85682;SDS011;76253;52.232;5.176;2024-03-08T03:15:10;37.00;;;15.20;;
85682;SDS011;76253;52.232;5.176;2024-03-08T03:17:36;31.13;;;13.55;;
85682;SDS011;76253;52.232;5.176;2024-03-08T03:20:04;35.47;;;13.43;;
85682;SDS011;76253;52.232;5.176;2024-03-08T03:22:34;32.38;;;13.18;;
85682;SDS011;76253;52.232;5.176;2024-03-08T03:27:29;36.45;;;13.55;;
85682;SDS011;76253;52.232;5.176;2024-03-08T03:29:55;36.88;;;14.38;;
85682;SDS011;76253;52.232;5.176;2024-03-08T03:32:22;36.95;;;13.75;;
85682;SDS011;76253;52.232;5.176;2024-03-08T03:34:48;37.25;;;14.55;;
85682;SDS011;76253;52.232;5.176;2024-03-08T03:37:17;38.25;;;14.60;;
85682;SDS011;76253;52.232;5.176;2024-03-08T03:39:44;38.80;;;14.93;;
85682;SDS011;76253;52.232;5.176;2024-03-08T03:42:18;34.00;;;15.07;;
85682;SDS011;76253;52.232;5.176;2024-03-08T03:47:13;34.40;;;12.57;;
85682;SDS011;76253;52.232;5.176;2024-03-08T03:49:39;35.13;;;14.45;;
85682;SDS011;76253;52.232;5.176;2024-03-08T03:52:05;35.17;;;13.38;;
85682;SDS011;76253;52.232;5.176;2024-03-08T03:54:31;35.15;;;14.85;;
85682;SDS011;76253;52.232;5.176;2024-03-08T03:56:57;35.97;;;13.65;;
85682;SDS011;76253;52.232;5.176;2024-03-08T03:59:23;39.00;;;15.20;;
85682;SDS011;76253;52.232;5.176;2024-03-08T04:01:49;37.05;;;14.25;;
85682;SDS011;76253;52.232;5.176;2024-03-08T04:04:16;36.00;;;13.50;;
85682;SDS011;76253;52.232;5.176;2024-03-08T04:06:41;41.63;;;15.60;;
85682;SDS011;76253;52.232;5.176;2024-03-08T04:09:07;30.80;;;14.00;;
85682;SDS011;76253;52.232;5.176;2024-03-08T04:11:33;35.80;;;16.85;;
85682;SDS011;76253;52.232;5.176;2024-03-08T04:13:58;33.38;;;14.02;;
85682;SDS011;76253;52.232;5.176;2024-03-08T04:16:24;38.92;;;14.75;;
85682;SDS011;76253;52.232;5.176;2024-03-08T04:18:50;38.47;;;15.18;;
85682;SDS011;76253;52.232;5.176;2024-03-08T04:21:16;36.97;;;14.80;;
85682;SDS011;76253;52.232;5.176;2024-03-08T04:23:44;38.47;;;15.82;;
85682;SDS011;76253;52.232;5.176;2024-03-08T04:26:10;40.08;;;15.27;;
85682;SDS011;76253;52.232;5.176;2024-03-08T04:28:35;35.97;;;14.43;;
85682;SDS011;76253;52.232;5.176;2024-03-08T04:31:02;32.28;;;14.52;;
85682;SDS011;76253;52.232;5.176;2024-03-08T04:33:28;32.72;;;13.18;;
85682;SDS011;76253;52.232;5.176;2024-03-08T04:35:54;38.05;;;15.52;;
85682;SDS011;76253;52.232;5.176;2024-03-08T04:38:21;36.60;;;14.52;;
85682;SDS011;76253;52.232;5.176;2024-03-08T04:40:47;38.80;;;15.88;;
85682;SDS011;76253;52.232;5.176;2024-03-08T04:43:13;34.92;;;15.90;;
85682;SDS011;76253;52.232;5.176;2024-03-08T04:45:39;33.42;;;14.88;;
85682;SDS011;76253;52.232;5.176;2024-03-08T04:48:07;33.72;;;14.60;;
85682;SDS011;76253;52.232;5.176;2024-03-08T04:50:33;40.08;;;15.13;;
85682;SDS011;76253;52.232;5.176;2024-03-08T04:52:59;35.90;;;15.23;;
85682;SDS011;76253;52.232;5.176;2024-03-08T04:55:24;41.55;;;15.70;;
85682;SDS011;76253;52.232;5.176;2024-03-08T04:57:49;36.55;;;13.70;;
85682;SDS011;76253;52.232;5.176;2024-03-08T05:00:15;37.03;;;14.77;;
85682;SDS011;76253;52.232;5.176;2024-03-08T05:02:41;38.15;;;15.88;;
85682;SDS011;76253;52.232;5.176;2024-03-08T05:05:07;37.55;;;15.25;;
85682;SDS011;76253;52.232;5.176;2024-03-08T05:07:33;39.17;;;14.80;;
85682;SDS011;76253;52.232;5.176;2024-03-08T05:09:58;40.57;;;15.87;;
85682;SDS011;76253;52.232;5.176;2024-03-08T05:12:24;42.47;;;16.25;;
85682;SDS011;76253;52.232;5.176;2024-03-08T05:14:50;40.25;;;16.08;;
85682;SDS011;76253;52.232;5.176;2024-03-08T05:17:15;45.03;;;16.50;;
85682;SDS011;76253;52.232;5.176;2024-03-08T05:19:42;41.30;;;16.13;;
85682;SDS011;76253;52.232;5.176;2024-03-08T05:22:07;40.83;;;15.82;;
85682;SDS011;76253;52.232;5.176;2024-03-08T05:24:33;38.05;;;15.70;;
85682;SDS011;76253;52.232;5.176;2024-03-08T05:26:58;37.67;;;14.82;;
85682;SDS011;76253;52.232;5.176;2024-03-08T05:29:25;39.28;;;16.02;;
85682;SDS011;76253;52.232;5.176;2024-03-08T05:31:51;35.83;;;15.50;;
85682;SDS011;76253;52.232;5.176;2024-03-08T05:34:20;40.10;;;15.82;;
85682;SDS011;76253;52.232;5.176;2024-03-08T05:36:46;37.72;;;16.25;;
85682;SDS011;76253;52.232;5.176;2024-03-08T05:39:17;35.15;;;15.95;;
85682;SDS011;76253;52.232;5.176;2024-03-08T05:41:44;37.92;;;15.23;;
85682;SDS011;76253;52.232;5.176;2024-03-08T05:44:11;36.72;;;14.95;;
85682;SDS011;76253;52.232;5.176;2024-03-08T05:46:36;39.22;;;15.48;;
85682;SDS011;76253;52.232;5.176;2024-03-08T05:49:05;34.95;;;13.98;;
85682;SDS011;76253;52.232;5.176;2024-03-08T05:54:01;39.13;;;14.75;;
85682;SDS011;76253;52.232;5.176;2024-03-08T05:56:35;39.35;;;14.43;;
85682;SDS011;76253;52.232;5.176;2024-03-08T05:59:00;35.83;;;15.32;;
85682;SDS011;76253;52.232;5.176;2024-03-08T06:01:26;45.80;;;16.17;;
85682;SDS011;76253;52.232;5.176;2024-03-08T06:03:53;33.25;;;14.57;;
85682;SDS011;76253;52.232;5.176;2024-03-08T06:06:20;40.50;;;16.27;;
85682;SDS011;76253;52.232;5.176;2024-03-08T06:08:46;37.50;;;15.57;;
85682;SDS011;76253;52.232;5.176;2024-03-08T06:11:14;43.88;;;16.23;;
85682;SDS011;76253;52.232;5.176;2024-03-08T06:13:43;36.60;;;15.85;;
85682;SDS011;76253;52.232;5.176;2024-03-08T06:16:10;35.92;;;14.25;;
85682;SDS011;76253;52.232;5.176;2024-03-08T06:21:09;39.85;;;15.52;;
85682;SDS011;76253;52.232;5.176;2024-03-08T06:23:36;29.80;;;13.45;;
85682;SDS011;76253;52.232;5.176;2024-03-08T06:26:03;34.92;;;15.07;;
85682;SDS011;76253;52.232;5.176;2024-03-08T06:28:32;34.55;;;14.60;;
85682;SDS011;76253;52.232;5.176;2024-03-08T06:30:59;36.33;;;15.30;;
85682;SDS011;76253;52.232;5.176;2024-03-08T06:33:25;41.72;;;16.70;;
85682;SDS011;76253;52.232;5.176;2024-03-08T06:35:53;44.15;;;16.65;;
85682;SDS011;76253;52.232;5.176;2024-03-08T06:38:22;33.40;;;14.73;;
85682;SDS011;76253;52.232;5.176;2024-03-08T06:40:51;37.10;;;16.08;;
85682;SDS011;76253;52.232;5.176;2024-03-08T06:43:17;37.50;;;15.25;;
85682;SDS011;76253;52.232;5.176;2024-03-08T06:45:43;38.00;;;17.30;;
85682;SDS011;76253;52.232;5.176;2024-03-08T06:48:13;35.60;;;15.65;;
85682;SDS011;76253;52.232;5.176;2024-03-08T06:50:41;35.50;;;15.50;;
85682;SDS011;76253;52.232;5.176;2024-03-08T06:53:06;36.65;;;16.35;;
85682;SDS011;76253;52.232;5.176;2024-03-08T06:55:31;34.28;;;15.57;;
85682;SDS011;76253;52.232;5.176;2024-03-08T06:57:59;33.58;;;15.00;;
85682;SDS011;76253;52.232;5.176;2024-03-08T07:00:24;35.00;;;16.13;;
85682;SDS011;76253;52.232;5.176;2024-03-08T07:02:52;35.95;;;15.23;;
85682;SDS011;76253;52.232;5.176;2024-03-08T07:05:18;42.03;;;18.15;;
85682;SDS011;76253;52.232;5.176;2024-03-08T07:07:44;39.53;;;16.38;;
85682;SDS011;76253;52.232;5.176;2024-03-08T07:10:10;34.80;;;16.35;;
85682;SDS011;76253;52.232;5.176;2024-03-08T07:15:03;37.05;;;15.02;;
85682;SDS011;76253;52.232;5.176;2024-03-08T07:17:30;35.13;;;15.73;;
85682;SDS011;76253;52.232;5.176;2024-03-08T07:19:56;45.75;;;19.88;;
85682;SDS011;76253;52.232;5.176;2024-03-08T07:22:24;35.15;;;16.65;;
85682;SDS011;76253;52.232;5.176;2024-03-08T07:24:49;37.22;;;15.90;;
85682;SDS011;76253;52.232;5.176;2024-03-08T07:27:35;34.80;;;15.05;;
85682;SDS011;76253;52.232;5.176;2024-03-08T07:30:01;41.67;;;16.77;;
85682;SDS011;76253;52.232;5.176;2024-03-08T07:34:55;33.38;;;14.63;;
85682;SDS011;76253;52.232;5.176;2024-03-08T07:37:23;42.20;;;16.63;;
85682;SDS011;76253;52.232;5.176;2024-03-08T07:39:49;33.20;;;14.40;;
85682;SDS011;76253;52.232;5.176;2024-03-08T07:42:15;37.92;;;15.00;;
85682;SDS011;76253;52.232;5.176;2024-03-08T07:44:41;40.28;;;15.95;;
85682;SDS011;76253;52.232;5.176;2024-03-08T07:47:07;38.20;;;15.38;;
85682;SDS011;76253;52.232;5.176;2024-03-08T07:49:34;36.60;;;15.85;;
85682;SDS011;76253;52.232;5.176;2024-03-08T07:52:03;34.47;;;16.00;;
85682;SDS011;76253;52.232;5.176;2024-03-08T07:54:30;36.65;;;16.48;;
85682;SDS011;76253;52.232;5.176;2024-03-08T07:56:55;32.92;;;15.18;;
85682;SDS011;76253;52.232;5.176;2024-03-08T07:59:21;36.45;;;17.10;;
85682;SDS011;76253;52.232;5.176;2024-03-08T08:01:46;39.20;;;15.20;;
85682;SDS011;76253;52.232;5.176;2024-03-08T08:04:12;31.80;;;14.75;;
85682;SDS011;76253;52.232;5.176;2024-03-08T08:06:39;29.48;;;13.20;;
85682;SDS011;76253;52.232;5.176;2024-03-08T08:09:08;30.65;;;14.85;;
85682;SDS011;76253;52.232;5.176;2024-03-08T08:11:42;33.83;;;15.35;;
85682;SDS011;76253;52.232;5.176;2024-03-08T08:14:09;33.28;;;15.02;;
85682;SDS011;76253;52.232;5.176;2024-03-08T08:16:35;32.28;;;13.77;;
85682;SDS011;76253;52.232;5.176;2024-03-08T08:19:02;32.35;;;14.38;;
85682;SDS011;76253;52.232;5.176;2024-03-08T08:21:32;32.20;;;14.48;;
85682;SDS011;76253;52.232;5.176;2024-03-08T08:23:58;32.72;;;14.35;;
85682;SDS011;76253;52.232;5.176;2024-03-08T08:26:25;35.30;;;15.25;;
85682;SDS011;76253;52.232;5.176;2024-03-08T08:28:51;34.20;;;15.15;;
85682;SDS011;76253;52.232;5.176;2024-03-08T08:31:18;37.63;;;14.80;;
85682;SDS011;76253;52.232;5.176;2024-03-08T08:33:44;28.75;;;14.15;;
85682;SDS011;76253;52.232;5.176;2024-03-08T08:36:09;33.92;;;15.05;;
85682;SDS011;76253;52.232;5.176;2024-03-08T08:38:35;35.55;;;15.93;;
85682;SDS011;76253;52.232;5.176;2024-03-08T08:41:07;37.88;;;16.02;;
85682;SDS011;76253;52.232;5.176;2024-03-08T08:43:34;32.95;;;14.00;;
85682;SDS011;76253;52.232;5.176;2024-03-08T08:46:00;30.08;;;13.75;;
85682;SDS011;76253;52.232;5.176;2024-03-08T08:48:27;30.60;;;14.77;;
85682;SDS011;76253;52.232;5.176;2024-03-08T08:50:55;31.35;;;14.48;;
85682;SDS011;76253;52.232;5.176;2024-03-08T08:53:21;30.77;;;13.93;;
85682;SDS011;76253;52.232;5.176;2024-03-08T08:55:48;30.17;;;13.70;;
85682;SDS011;76253;52.232;5.176;2024-03-08T08:58:13;32.92;;;14.35;;
85682;SDS011;76253;52.232;5.176;2024-03-08T09:00:39;29.85;;;15.10;;
85682;SDS011;76253;52.232;5.176;2024-03-08T09:03:05;29.55;;;13.85;;
85682;SDS011;76253;52.232;5.176;2024-03-08T09:05:31;33.97;;;14.80;;
85682;SDS011;76253;52.232;5.176;2024-03-08T09:07:57;26.85;;;13.02;;
85682;SDS011;76253;52.232;5.176;2024-03-08T09:10:22;29.40;;;14.30;;
85682;SDS011;76253;52.232;5.176;2024-03-08T09:12:48;28.35;;;13.85;;
85682;SDS011;76253;52.232;5.176;2024-03-08T09:15:14;32.90;;;14.48;;
85682;SDS011;76253;52.232;5.176;2024-03-08T09:17:39;26.70;;;13.65;;
85682;SDS011;76253;52.232;5.176;2024-03-08T09:20:08;31.45;;;14.73;;
85682;SDS011;76253;52.232;5.176;2024-03-08T09:22:35;27.65;;;14.05;;
85682;SDS011;76253;52.232;5.176;2024-03-08T09:25:00;31.83;;;14.85;;
85682;SDS011;76253;52.232;5.176;2024-03-08T09:27:26;28.08;;;13.88;;
85682;SDS011;76253;52.232;5.176;2024-03-08T09:29:53;30.08;;;14.15;;
85682;SDS011;76253;52.232;5.176;2024-03-08T09:32:18;28.77;;;13.60;;
85682;SDS011;76253;52.232;5.176;2024-03-08T09:34:43;30.10;;;15.02;;
85682;SDS011;76253;52.232;5.176;2024-03-08T09:37:09;29.42;;;15.45;;
85682;SDS011;76253;52.232;5.176;2024-03-08T09:39:35;31.80;;;14.63;;
85682;SDS011;76253;52.232;5.176;2024-03-08T09:42:00;29.38;;;13.52;;
85682;SDS011;76253;52.232;5.176;2024-03-08T09:44:26;28.45;;;13.73;;
85682;SDS011;76253;52.232;5.176;2024-03-08T09:46:53;30.45;;;14.98;;
85682;SDS011;76253;52.232;5.176;2024-03-08T09:49:19;29.25;;;14.70;;
85682;SDS011;76253;52.232;5.176;2024-03-08T09:51:45;30.52;;;14.95;;
85682;SDS011;76253;52.232;5.176;2024-03-08T09:54:11;31.50;;;14.82;;
85682;SDS011;76253;52.232;5.176;2024-03-08T09:56:37;28.95;;;14.50;;
85682;SDS011;76253;52.232;5.176;2024-03-08T09:59:06;28.42;;;13.68;;
85682;SDS011;76253;52.232;5.176;2024-03-08T10:01:39;30.75;;;14.75;;
85682;SDS011;76253;52.232;5.176;2024-03-08T10:04:04;26.20;;;13.85;;
85682;SDS011;76253;52.232;5.176;2024-03-08T10:06:30;31.55;;;14.35;;
85682;SDS011;76253;52.232;5.176;2024-03-08T10:08:58;24.77;;;12.85;;
85682;SDS011;76253;52.232;5.176;2024-03-08T10:11:25;32.58;;;14.98;;
85682;SDS011;76253;52.232;5.176;2024-03-08T10:13:53;29.00;;;14.70;;
85682;SDS011;76253;52.232;5.176;2024-03-08T10:16:19;30.05;;;13.75;;
85682;SDS011;76253;52.232;5.176;2024-03-08T10:18:45;31.05;;;14.02;;
85682;SDS011;76253;52.232;5.176;2024-03-08T10:21:11;28.52;;;14.63;;
85682;SDS011;76253;52.232;5.176;2024-03-08T10:23:42;28.15;;;14.00;;
85682;SDS011;76253;52.232;5.176;2024-03-08T10:26:15;28.98;;;14.57;;
85682;SDS011;76253;52.232;5.176;2024-03-08T10:28:44;26.88;;;13.60;;
85682;SDS011;76253;52.232;5.176;2024-03-08T10:31:10;28.55;;;13.52;;
85682;SDS011;76253;52.232;5.176;2024-03-08T10:33:38;28.73;;;13.93;;
85682;SDS011;76253;52.232;5.176;2024-03-08T10:36:05;25.67;;;13.10;;
85682;SDS011;76253;52.232;5.176;2024-03-08T10:38:37;27.55;;;13.27;;
85682;SDS011;76253;52.232;5.176;2024-03-08T10:41:11;28.50;;;13.98;;
85682;SDS011;76253;52.232;5.176;2024-03-08T10:48:55;26.25;;;12.68;;
85682;SDS011;76253;52.232;5.176;2024-03-08T10:51:28;26.83;;;12.50;;
85682;SDS011;76253;52.232;5.176;2024-03-08T10:53:56;28.70;;;12.80;;
85682;SDS011;76253;52.232;5.176;2024-03-08T10:56:24;24.55;;;12.75;;
85682;SDS011;76253;52.232;5.176;2024-03-08T10:58:52;23.35;;;12.07;;
85682;SDS011;76253;52.232;5.176;2024-03-08T11:03:45;22.10;;;12.30;;
85682;SDS011;76253;52.232;5.176;2024-03-08T11:08:56;28.08;;;13.63;;
85682;SDS011;76253;52.232;5.176;2024-03-08T11:11:32;25.25;;;12.93;;
85682;SDS011;76253;52.232;5.176;2024-03-08T11:13:59;23.55;;;12.45;;
85682;SDS011;76253;52.232;5.176;2024-03-08T11:18:59;24.13;;;13.05;;
85682;SDS011;76253;52.232;5.176;2024-03-08T11:21:30;24.38;;;12.38;;
85682;SDS011;76253;52.232;5.176;2024-03-08T11:23:59;23.38;;;13.10;;
85682;SDS011;76253;52.232;5.176;2024-03-08T11:26:30;25.55;;;12.27;;
85682;SDS011;76253;52.232;5.176;2024-03-08T11:29:22;23.67;;;12.35;;
85682;SDS011;76253;52.232;5.176;2024-03-08T11:32:10;22.15;;;11.57;;
85682;SDS011;76253;52.232;5.176;2024-03-08T11:34:47;20.98;;;11.32;;
85682;SDS011;76253;52.232;5.176;2024-03-08T11:37:15;25.67;;;12.00;;
85682;SDS011;76253;52.232;5.176;2024-03-08T11:40:01;19.10;;;11.10;;
85682;SDS011;76253;52.232;5.176;2024-03-08T11:42:30;21.08;;;12.10;;
85682;SDS011;76253;52.232;5.176;2024-03-08T11:44:55;24.88;;;12.80;;
85682;SDS011;76253;52.232;5.176;2024-03-08T11:47:21;20.50;;;11.45;;
85682;SDS011;76253;52.232;5.176;2024-03-08T11:49:48;22.73;;;12.65;;
85682;SDS011;76253;52.232;5.176;2024-03-08T11:52:14;21.40;;;11.20;;
85682;SDS011;76253;52.232;5.176;2024-03-08T11:54:41;21.95;;;12.90;;
85682;SDS011;76253;52.232;5.176;2024-03-08T11:57:08;21.52;;;11.55;;
85682;SDS011;76253;52.232;5.176;2024-03-08T11:59:35;19.00;;;11.95;;
85682;SDS011;76253;52.232;5.176;2024-03-08T12:02:03;21.40;;;12.05;;
85682;SDS011;76253;52.232;5.176;2024-03-08T12:04:36;21.90;;;12.32;;
85682;SDS011;76253;52.232;5.176;2024-03-08T12:09:28;19.20;;;10.05;;
85682;SDS011;76253;52.232;5.176;2024-03-08T12:11:54;18.42;;;11.95;;
85682;SDS011;76253;52.232;5.176;2024-03-08T12:14:20;18.00;;;12.30;;
85682;SDS011;76253;52.232;5.176;2024-03-08T12:16:47;15.60;;;10.65;;
85682;SDS011;76253;52.232;5.176;2024-03-08T12:19:13;17.85;;;11.43;;
85682;SDS011;76253;52.232;5.176;2024-03-08T12:21:41;16.00;;;10.65;;
85682;SDS011;76253;52.232;5.176;2024-03-08T12:24:14;16.50;;;11.50;;
85682;SDS011;76253;52.232;5.176;2024-03-08T12:26:44;18.55;;;12.20;;
85682;SDS011;76253;52.232;5.176;2024-03-08T12:29:19;17.90;;;12.45;;
85682;SDS011;76253;52.232;5.176;2024-03-08T12:31:59;16.77;;;12.00;;
85682;SDS011;76253;52.232;5.176;2024-03-08T12:34:30;17.42;;;12.60;;
85682;SDS011;76253;52.232;5.176;2024-03-08T12:36:57;17.98;;;12.80;;
85682;SDS011;76253;52.232;5.176;2024-03-08T12:39:24;18.50;;;12.48;;
85682;SDS011;76253;52.232;5.176;2024-03-08T12:41:52;17.73;;;13.18;;
85682;SDS011;76253;52.232;5.176;2024-03-08T12:44:22;17.70;;;14.45;;
85682;SDS011;76253;52.232;5.176;2024-03-08T12:46:48;18.15;;;13.57;;
85682;SDS011;76253;52.232;5.176;2024-03-08T12:49:19;15.80;;;12.80;;
85682;SDS011;76253;52.232;5.176;2024-03-08T12:51:47;17.13;;;14.40;;
85682;SDS011;76253;52.232;5.176;2024-03-08T12:54:13;16.95;;;13.02;;
85682;SDS011;76253;52.232;5.176;2024-03-08T12:56:39;16.35;;;13.45;;
85682;SDS011;76253;52.232;5.176;2024-03-08T12:59:05;17.50;;;13.02;;
85682;SDS011;76253;52.232;5.176;2024-03-08T13:01:33;17.05;;;13.93;;
85682;SDS011;76253;52.232;5.176;2024-03-08T13:03:58;17.85;;;13.50;;
85682;SDS011;76253;52.232;5.176;2024-03-08T13:06:29;17.92;;;14.30;;
85682;SDS011;76253;52.232;5.176;2024-03-08T13:08:56;18.50;;;13.40;;
85682;SDS011;76253;52.232;5.176;2024-03-08T13:11:24;17.02;;;13.88;;
85682;SDS011;76253;52.232;5.176;2024-03-08T13:13:53;18.05;;;13.18;;
85682;SDS011;76253;52.232;5.176;2024-03-08T13:16:18;18.42;;;14.10;;
85682;SDS011;76253;52.232;5.176;2024-03-08T13:18:44;17.00;;;14.35;;
85682;SDS011;76253;52.232;5.176;2024-03-08T13:21:13;18.02;;;14.30;;
85682;SDS011;76253;52.232;5.176;2024-03-08T13:23:40;17.38;;;12.65;;
85682;SDS011;76253;52.232;5.176;2024-03-08T13:26:11;18.27;;;13.70;;
85682;SDS011;76253;52.232;5.176;2024-03-08T13:28:40;18.77;;;13.13;;
85682;SDS011;76253;52.232;5.176;2024-03-08T13:31:06;17.73;;;14.48;;
85682;SDS011;76253;52.232;5.176;2024-03-08T13:33:35;17.92;;;14.23;;
85682;SDS011;76253;52.232;5.176;2024-03-08T13:36:10;18.67;;;13.63;;
85682;SDS011;76253;52.232;5.176;2024-03-08T13:38:47;18.77;;;13.80;;
85682;SDS011;76253;52.232;5.176;2024-03-08T13:41:15;17.85;;;14.13;;
85682;SDS011;76253;52.232;5.176;2024-03-08T13:43:42;17.17;;;13.40;;
85682;SDS011;76253;52.232;5.176;2024-03-08T13:46:09;18.50;;;14.57;;
85682;SDS011;76253;52.232;5.176;2024-03-08T13:48:37;18.15;;;13.15;;
85682;SDS011;76253;52.232;5.176;2024-03-08T13:51:05;16.73;;;13.73;;
85682;SDS011;76253;52.232;5.176;2024-03-08T13:53:31;17.73;;;14.57;;
85682;SDS011;76253;52.232;5.176;2024-03-08T13:56:01;17.80;;;15.00;;
85682;SDS011;76253;52.232;5.176;2024-03-08T13:58:28;18.75;;;14.35;;
85682;SDS011;76253;52.232;5.176;2024-03-08T14:00:54;16.88;;;12.98;;
85682;SDS011;76253;52.232;5.176;2024-03-08T14:03:20;17.17;;;14.45;;
85682;SDS011;76253;52.232;5.176;2024-03-08T14:05:46;19.38;;;13.98;;
85682;SDS011;76253;52.232;5.176;2024-03-08T14:08:12;18.20;;;14.48;;
85682;SDS011;76253;52.232;5.176;2024-03-08T14:10:39;17.35;;;14.48;;
85682;SDS011;76253;52.232;5.176;2024-03-08T14:13:07;18.70;;;16.48;;
85682;SDS011;76253;52.232;5.176;2024-03-08T14:15:34;18.38;;;14.70;;
85682;SDS011;76253;52.232;5.176;2024-03-08T14:18:00;18.48;;;14.55;;
85682;SDS011;76253;52.232;5.176;2024-03-08T14:20:31;17.52;;;14.02;;
85682;SDS011;76253;52.232;5.176;2024-03-08T14:22:58;22.27;;;16.83;;
85682;SDS011;76253;52.232;5.176;2024-03-08T14:25:45;16.85;;;13.45;;
85682;SDS011;76253;52.232;5.176;2024-03-08T14:28:11;16.30;;;13.90;;
85682;SDS011;76253;52.232;5.176;2024-03-08T14:30:43;18.92;;;13.75;;
85682;SDS011;76253;52.232;5.176;2024-03-08T14:33:08;18.63;;;14.20;;
85682;SDS011;76253;52.232;5.176;2024-03-08T14:35:35;18.00;;;13.98;;
85682;SDS011;76253;52.232;5.176;2024-03-08T14:38:01;16.08;;;13.48;;
85682;SDS011;76253;52.232;5.176;2024-03-08T14:40:28;16.83;;;13.20;;
85682;SDS011;76253;52.232;5.176;2024-03-08T14:42:55;17.65;;;13.38;;
85682;SDS011;76253;52.232;5.176;2024-03-08T14:45:24;16.02;;;13.10;;
85682;SDS011;76253;52.232;5.176;2024-03-08T14:47:51;19.38;;;15.30;;
85682;SDS011;76253;52.232;5.176;2024-03-08T14:50:17;18.40;;;13.65;;
85682;SDS011;76253;52.232;5.176;2024-03-08T14:52:44;17.58;;;15.38;;
85682;SDS011;76253;52.232;5.176;2024-03-08T14:55:11;18.00;;;14.13;;
85682;SDS011;76253;52.232;5.176;2024-03-08T14:57:40;18.23;;;15.18;;